Napaskiak, Alaska
Current Conditions -  °F | °C
As of 8:53 AM on Sunday 21 Dec 2014 (Local Time) from PABE Reporting Station
Scattered Clouds Scattered Clouds  
Wind Chill: -25°   Ceiling: Unl
Heat Index: -17°   Visibility: 10mi
Dew Point: -18°   Wind: 10mph
Humidity: 88%   Direction: 320°NW
Pressure: 29.33"   Gusts: NA
Location:  60.7494°N, 161.727°W
Report Text: PABE 211753Z 32009KT 10SM SCT120 M17/M18 A2933 RMK AO2 SLP934 T11671183 11156 21167 51023
Loading
Personal Weather Stations






























Interactive Weather Map New forecast layout! Learn more

10-Day Weather Forecast

Advertisements
Track Severe Weather on mobile